createdAt,value
2022-07-25T00:00:19.832Z,95.40
2022-07-25T00:02:47.710Z,95.70
2022-07-25T00:05:16.151Z,96.30
2022-07-25T00:07:43.772Z,95.80
2022-07-25T00:10:11.538Z,96.00
2022-07-25T00:12:39.306Z,96.00
2022-07-25T00:15:07.741Z,96.00
2022-07-25T00:17:38.014Z,96.20
2022-07-25T00:20:06.795Z,96.20
2022-07-25T00:22:37.100Z,97.30
2022-07-25T00:25:05.239Z,96.70
2022-07-25T00:27:32.850Z,96.50
2022-07-25T00:30:00.563Z,96.40
2022-07-25T00:32:28.550Z,96.90
2022-07-25T00:34:56.153Z,96.40
2022-07-25T00:37:24.789Z,96.50
2022-07-25T00:39:52.702Z,96.60
2022-07-25T00:42:22.076Z,96.50
2022-07-25T00:44:51.092Z,96.60
2022-07-25T00:47:19.889Z,96.70
2022-07-25T00:49:47.640Z,96.80
2022-07-25T00:52:15.611Z,96.90
2022-07-25T00:54:43.893Z,97.00
2022-07-25T00:57:12.991Z,97.40
2022-07-25T00:59:41.346Z,97.50
2022-07-25T01:02:09.297Z,97.40
2022-07-25T01:04:39.325Z,97.30
2022-07-25T01:07:07.015Z,97.40
2022-07-25T01:09:34.714Z,97.80
2022-07-25T01:12:02.291Z,97.70
2022-07-25T01:14:30.062Z,97.70
2022-07-25T01:16:57.684Z,97.60
2022-07-25T01:19:25.467Z,97.70
2022-07-25T01:21:53.416Z,97.70
2022-07-25T01:24:24.005Z,97.70
2022-07-25T01:26:53.593Z,97.90
2022-07-25T01:29:21.495Z,98.10
2022-07-25T01:31:52.306Z,97.90
2022-07-25T01:34:20.194Z,98.00
2022-07-25T01:36:48.055Z,98.00
2022-07-25T01:39:18.142Z,98.00
2022-07-25T01:41:45.786Z,98.40
2022-07-25T01:44:13.392Z,98.00
2022-07-25T01:46:41.093Z,97.80
2022-07-25T01:49:08.860Z,97.70
2022-07-25T01:51:36.574Z,97.70
2022-07-25T01:54:09.054Z,97.80
2022-07-25T01:56:42.899Z,97.60
2022-07-25T01:59:10.937Z,97.50
2022-07-25T02:01:38.668Z,97.50
2022-07-25T02:04:06.612Z,97.70
2022-07-25T02:06:35.333Z,97.50
2022-07-25T02:09:04.565Z,97.40
2022-07-25T02:11:32.173Z,97.30
2022-07-25T02:14:00.197Z,97.30
2022-07-25T02:16:29.347Z,97.70
2022-07-25T02:18:57.322Z,97.30
2022-07-25T02:21:26.252Z,97.20
2022-07-25T02:23:53.842Z,97.20
2022-07-25T02:26:21.471Z,97.20
2022-07-25T02:28:50.136Z,97.50
2022-07-25T02:31:17.896Z,97.50
2022-07-25T02:33:45.730Z,97.80
2022-07-25T02:36:13.392Z,97.70
2022-07-25T02:38:41.267Z,97.70
2022-07-25T02:41:09.136Z,97.80
2022-07-25T02:43:36.840Z,97.90
2022-07-25T02:46:04.576Z,97.90
2022-07-25T02:48:32.330Z,98.10
2022-07-25T02:51:00.034Z,98.00
2022-07-25T02:53:54.456Z,98.00
2022-07-25T02:56:15.539Z,98.00
2022-07-25T02:58:45.026Z,98.20
2022-07-25T03:01:13.287Z,98.40
2022-07-25T03:03:41.140Z,98.30
2022-07-25T03:06:08.857Z,98.30
2022-07-25T03:08:39.620Z,98.30
2022-07-25T03:11:07.234Z,98.60
2022-07-25T03:13:34.856Z,98.40
2022-07-25T03:16:02.636Z,98.50
2022-07-25T03:18:30.300Z,98.50
2022-07-25T03:20:57.957Z,98.60
2022-07-25T03:23:27.375Z,98.40
2022-07-25T03:25:56.037Z,98.60
2022-07-25T03:28:24.820Z,98.50
2022-07-25T03:30:53.224Z,98.50
2022-07-25T03:33:20.953Z,98.50
2022-07-25T03:35:48.796Z,98.50
2022-07-25T03:38:16.418Z,98.70
2022-07-25T03:40:44.315Z,98.50
2022-07-25T03:43:12.008Z,98.60
2022-07-25T03:45:39.733Z,98.60
2022-07-25T03:48:07.478Z,98.50
2022-07-25T03:50:35.233Z,98.60
2022-07-25T03:53:03.024Z,98.60
2022-07-25T03:55:30.772Z,98.50
2022-07-25T03:57:58.401Z,98.50
2022-07-25T04:00:26.059Z,98.40
2022-07-25T04:02:55.007Z,98.40
2022-07-25T04:05:22.625Z,98.40
2022-07-25T04:07:50.274Z,98.40
2022-07-25T04:10:17.898Z,98.40
2022-07-25T04:12:45.710Z,98.40
2022-07-25T04:15:13.477Z,98.30
2022-07-25T04:17:41.113Z,98.30
2022-07-25T04:20:09.985Z,98.30
2022-07-25T04:22:40.974Z,98.20
2022-07-25T04:25:10.022Z,98.20
2022-07-25T04:27:38.445Z,98.20
2022-07-25T04:30:06.517Z,98.20
2022-07-25T04:32:34.076Z,98.30
2022-07-25T04:35:01.695Z,98.20
2022-07-25T04:37:29.287Z,98.30
2022-07-25T04:39:56.914Z,98.30
2022-07-25T04:42:25.195Z,98.40
2022-07-25T04:44:52.837Z,98.50
2022-07-25T04:47:20.465Z,98.50
2022-07-25T04:49:48.133Z,98.60
2022-07-25T04:52:15.834Z,98.60
2022-07-25T04:54:43.547Z,98.70
2022-07-25T04:57:11.192Z,98.80
2022-07-25T04:59:38.860Z,99.00
2022-07-25T05:02:06.701Z,98.80
2022-07-25T05:04:34.954Z,98.80
2022-07-25T05:07:03.004Z,98.90
2022-07-25T05:09:30.636Z,98.80
2022-07-25T05:11:58.316Z,98.90
2022-07-25T05:14:25.887Z,98.90
2022-07-25T05:16:53.473Z,98.80
2022-07-25T05:19:21.153Z,98.90
2022-07-25T05:21:48.699Z,98.90
2022-07-25T05:24:16.371Z,98.80
2022-07-25T05:26:43.967Z,98.90
2022-07-25T05:29:12.171Z,98.60
2022-07-25T05:31:39.857Z,98.50
2022-07-25T05:34:07.899Z,98.30
2022-07-25T05:36:35.889Z,98.30
2022-07-25T05:39:04.347Z,98.20
2022-07-25T05:41:32.356Z,98.30
2022-07-25T05:44:00.029Z,97.60
2022-07-25T05:46:27.746Z,97.60
2022-07-25T05:48:55.508Z,97.50
2022-07-25T05:51:25.578Z,97.40
2022-07-25T05:53:55.261Z,97.20
2022-07-25T05:56:22.994Z,97.10
2022-07-25T05:58:50.644Z,96.90
2022-07-25T06:01:18.534Z,96.80
2022-07-25T06:03:46.196Z,96.70
2022-07-25T06:06:13.882Z,96.40
2022-07-25T06:08:41.584Z,96.40
2022-07-25T06:11:10.062Z,96.30
2022-07-25T06:13:37.796Z,96.20
2022-07-25T06:16:06.053Z,95.70
2022-07-25T06:18:33.719Z,95.20
2022-07-25T06:21:01.369Z,94.20
2022-07-25T06:23:31.869Z,93.80
2022-07-25T06:25:59.564Z,93.50
2022-07-25T06:28:27.255Z,93.20
2022-07-25T06:30:55.122Z,91.90
2022-07-25T06:33:25.953Z,92.90
2022-07-25T06:35:53.635Z,93.30
2022-07-25T06:38:21.237Z,92.90
2022-07-25T06:40:48.883Z,93.00
2022-07-25T06:43:16.451Z,92.90
2022-07-25T06:45:47.613Z,92.30
2022-07-25T06:48:17.083Z,92.00
2022-07-25T06:50:45.370Z,91.90
2022-07-25T06:53:13.125Z,91.50
2022-07-25T06:55:40.763Z,91.50
2022-07-25T06:58:08.548Z,90.90
2022-07-25T07:00:46.005Z,91.20
2022-07-25T07:03:13.766Z,91.30
2022-07-25T07:05:42.217Z,91.40
2022-07-25T07:08:10.005Z,91.30
2022-07-25T07:10:37.703Z,91.20
2022-07-25T07:13:11.735Z,91.10
2022-07-25T07:15:45.082Z,90.40
2022-07-25T07:18:12.768Z,90.90
2022-07-25T07:20:41.009Z,91.00
2022-07-25T07:23:11.810Z,91.10
2022-07-25T07:25:46.169Z,91.00
2022-07-25T07:28:14.388Z,90.60
2022-07-25T07:33:29.837Z,91.00
2022-07-25T07:35:57.439Z,91.10
2022-07-25T07:38:26.091Z,91.10
2022-07-25T07:40:54.624Z,90.70
2022-07-25T07:43:27.544Z,90.50
2022-07-25T07:46:02.654Z,90.60
2022-07-25T07:48:36.156Z,90.20
2022-07-25T07:51:04.555Z,89.70
2022-07-25T07:53:51.968Z,89.80
2022-07-25T07:56:19.773Z,89.50
2022-07-25T07:58:47.697Z,88.60
2022-07-25T08:01:15.476Z,89.00
2022-07-25T08:03:43.206Z,87.70
2022-07-25T08:06:14.052Z,88.90
2022-07-25T08:09:06.826Z,90.10
2022-07-25T08:11:35.163Z,89.20
2022-07-25T08:14:07.406Z,87.60
2022-07-25T08:16:35.490Z,85.60
2022-07-25T08:19:04.357Z,84.80
2022-07-25T08:21:31.981Z,84.60
2022-07-25T08:24:00.180Z,84.40
2022-07-25T08:26:28.079Z,84.30
2022-07-25T08:29:17.593Z,84.30
2022-07-25T08:31:47.738Z,85.00
2022-07-25T08:34:15.458Z,85.60
2022-07-25T08:36:43.098Z,85.20
2022-07-25T08:39:10.699Z,86.00
2022-07-25T08:41:41.287Z,85.60
2022-07-25T08:44:10.009Z,82.10
2022-07-25T08:46:40.767Z,82.60
2022-07-25T08:49:09.051Z,81.20
2022-07-25T08:51:37.475Z,80.00
2022-07-25T08:54:05.672Z,81.10
2022-07-25T08:56:35.742Z,81.20
2022-07-25T08:59:03.388Z,81.60
2022-07-25T09:01:35.138Z,81.70
2022-07-25T09:04:04.528Z,81.70
2022-07-25T09:06:32.459Z,82.50
2022-07-25T09:09:01.407Z,82.90
2022-07-25T09:11:34.679Z,83.30
2022-07-25T09:14:08.405Z,83.30
2022-07-25T09:16:40.432Z,83.40
2022-07-25T09:19:13.393Z,83.30
2022-07-25T09:21:42.873Z,83.60
2022-07-25T09:24:17.283Z,83.80
2022-07-25T09:26:53.634Z,84.10
2022-07-25T09:29:24.205Z,84.50
2022-07-25T09:31:53.945Z,84.40
2022-07-25T09:34:38.118Z,84.40
2022-07-25T09:37:14.730Z,84.30
2022-07-25T09:39:46.873Z,84.30
2022-07-25T09:42:20.620Z,84.50
2022-07-25T09:45:13.584Z,84.80
2022-07-25T09:47:55.779Z,86.00
2022-07-25T09:50:27.785Z,85.10
2022-07-25T09:52:57.237Z,84.60
2022-07-25T09:55:25.503Z,83.90
2022-07-25T09:57:53.273Z,83.20
2022-07-25T10:00:24.231Z,82.70
2022-07-25T10:02:55.083Z,82.40
2022-07-25T10:05:31.739Z,82.00
2022-07-25T10:08:00.802Z,82.20
2022-07-25T10:10:32.553Z,82.60
2022-07-25T10:13:11.560Z,82.90
2022-07-25T10:15:53.000Z,82.70
2022-07-25T10:18:26.330Z,82.50
2022-07-25T10:21:24.377Z,82.50
2022-07-25T10:24:04.882Z,81.30
2022-07-25T10:26:35.015Z,78.10
2022-07-25T10:29:09.404Z,79.70
2022-07-25T10:31:51.033Z,79.10
2022-07-25T10:34:30.978Z,78.80
2022-07-25T10:37:16.433Z,75.10
2022-07-25T10:39:46.375Z,74.70
2022-07-25T10:42:21.429Z,72.70
2022-07-25T10:44:57.606Z,74.70
2022-07-25T10:47:28.004Z,75.10
2022-07-25T10:50:16.836Z,74.00
2022-07-25T10:52:59.723Z,74.30
2022-07-25T10:55:29.599Z,73.00
2022-07-25T10:58:21.814Z,74.30
2022-07-25T11:00:51.427Z,73.20
2022-07-25T11:03:20.469Z,73.60
2022-07-25T11:05:48.594Z,73.10
2022-07-25T11:08:22.246Z,72.70
2022-07-25T11:10:53.491Z,72.10
2022-07-25T11:13:21.783Z,71.40
2022-07-25T11:15:49.952Z,71.30
2022-07-25T11:18:18.616Z,70.90
2022-07-25T11:20:49.249Z,70.60
2022-07-25T11:23:22.431Z,70.80
2022-07-25T11:25:51.469Z,72.60
2022-07-25T11:28:19.254Z,73.00
2022-07-25T11:30:47.579Z,73.70
2022-07-25T11:33:17.769Z,73.70
2022-07-25T11:35:45.998Z,73.30
2022-07-25T11:38:15.734Z,73.20
2022-07-25T11:40:46.834Z,73.40
2022-07-25T11:43:24.691Z,73.60
2022-07-25T11:46:01.499Z,74.90
2022-07-25T11:48:39.034Z,76.00
2022-07-25T11:51:18.615Z,77.00
2022-07-25T11:53:50.374Z,78.60
2022-07-25T11:56:41.913Z,78.60
2022-07-25T11:59:11.596Z,79.50
2022-07-25T12:01:43.944Z,80.20
2022-07-25T12:04:13.648Z,81.60
2022-07-25T12:06:44.033Z,81.50
2022-07-25T12:09:17.992Z,80.50
2022-07-25T12:11:47.890Z,79.10
2022-07-25T12:14:15.928Z,77.60
2022-07-25T12:16:43.733Z,76.90
2022-07-25T12:19:19.742Z,76.80
2022-07-25T12:21:47.985Z,77.00
2022-07-25T12:24:15.964Z,77.40
2022-07-25T12:26:43.706Z,77.50
2022-07-25T12:29:11.496Z,77.50
2022-07-25T12:31:39.945Z,77.60
2022-07-25T12:34:08.384Z,77.60
2022-07-25T12:36:44.229Z,77.50
2022-07-25T12:39:12.327Z,77.50
2022-07-25T12:41:42.715Z,77.60
2022-07-25T12:44:10.647Z,78.00
2022-07-25T12:46:40.335Z,78.20
2022-07-25T12:49:08.452Z,78.20
2022-07-25T12:51:36.375Z,78.10
2022-07-25T12:54:07.100Z,78.30
2022-07-25T12:56:35.181Z,78.50
2022-07-25T12:59:03.024Z,78.30
2022-07-25T13:01:30.785Z,77.70
2022-07-25T13:03:58.621Z,77.60
2022-07-25T13:06:26.267Z,77.80
2022-07-25T13:08:53.977Z,76.60
2022-07-25T13:11:21.642Z,76.40
2022-07-25T13:13:52.954Z,76.00
2022-07-25T13:16:21.224Z,75.20
2022-07-25T13:18:49.141Z,74.60
2022-07-25T13:21:16.837Z,72.80
2022-07-25T13:23:44.532Z,72.20
2022-07-25T13:26:12.350Z,71.50
2022-07-25T13:28:40.005Z,73.30
2022-07-25T13:31:08.011Z,73.50
2022-07-25T13:33:36.055Z,72.40
2022-07-25T13:36:03.981Z,71.40
2022-07-25T13:38:31.631Z,70.30
2022-07-25T13:40:59.300Z,69.40
2022-07-25T13:43:26.997Z,67.60
2022-07-25T13:45:54.736Z,66.90
2022-07-25T13:48:30.997Z,66.80
2022-07-25T13:51:00.015Z,65.80
2022-07-25T13:53:30.242Z,65.00
2022-07-25T13:56:01.135Z,64.30
2022-07-25T13:58:29.361Z,63.50
2022-07-25T14:00:57.019Z,62.70
2022-07-25T14:03:24.959Z,62.60
2022-07-25T14:05:52.643Z,62.50
2022-07-25T14:08:20.445Z,61.70
2022-07-25T14:10:48.067Z,61.80
2022-07-25T14:13:15.897Z,61.50
2022-07-25T14:15:43.674Z,61.60
2022-07-25T14:18:11.596Z,60.30
2022-07-25T14:20:42.243Z,62.10
2022-07-25T14:23:09.881Z,62.90
2022-07-25T14:25:40.221Z,63.30
2022-07-25T14:28:08.035Z,63.40
2022-07-25T14:30:35.696Z,63.70
2022-07-25T14:33:03.482Z,63.90
2022-07-25T14:35:32.715Z,64.00
2022-07-25T14:38:03.230Z,64.40
2022-07-25T14:40:31.069Z,64.80
2022-07-25T14:42:58.721Z,64.50
2022-07-25T14:45:26.359Z,64.30
2022-07-25T14:47:54.031Z,64.30
2022-07-25T14:50:21.768Z,64.00
2022-07-25T14:52:49.547Z,63.90
2022-07-25T14:55:18.843Z,63.20
2022-07-25T14:57:46.578Z,63.30
2022-07-25T15:00:17.451Z,63.40
2022-07-25T15:02:45.143Z,63.50
2022-07-25T15:05:16.039Z,63.60
2022-07-25T15:07:44.299Z,63.80
2022-07-25T15:10:12.063Z,63.90
2022-07-25T15:12:39.924Z,64.10
2022-07-25T15:15:08.003Z,64.00
2022-07-25T15:17:38.117Z,64.00
2022-07-25T15:20:06.414Z,63.90
2022-07-25T15:22:34.116Z,64.20
2022-07-25T15:25:57.942Z,64.40
2022-07-25T15:27:50.185Z,64.30
2022-07-25T15:30:17.815Z,64.20
2022-07-25T15:32:46.391Z,64.50
2022-07-25T15:35:14.485Z,64.60
2022-07-25T15:37:42.278Z,64.60
2022-07-25T15:40:10.616Z,64.40
2022-07-25T15:42:39.170Z,65.00
2022-07-25T15:45:32.008Z,64.70
2022-07-25T15:47:56.626Z,65.20
2022-07-25T15:50:24.685Z,65.50
2022-07-25T15:52:52.342Z,65.70
2022-07-25T15:55:20.966Z,65.90
2022-07-25T15:57:52.170Z,66.10
2022-07-25T16:00:20.275Z,66.50
2022-07-25T16:02:47.882Z,66.60
2022-07-25T16:05:15.862Z,66.80
2022-07-25T16:07:43.646Z,67.10
2022-07-25T16:10:11.668Z,67.30
2022-07-25T16:12:39.601Z,67.50
2022-07-25T16:15:08.017Z,67.50
2022-07-25T16:17:37.090Z,67.50
2022-07-25T16:20:06.777Z,67.20
2022-07-25T16:22:34.723Z,67.20
2022-07-25T16:25:03.011Z,67.30
2022-07-25T16:27:31.215Z,67.50
2022-07-25T16:29:59.149Z,67.50
2022-07-25T16:32:29.719Z,67.10
2022-07-25T16:34:59.859Z,66.90
2022-07-25T16:37:27.817Z,67.00
2022-07-25T16:39:55.457Z,67.00
2022-07-25T16:42:23.200Z,67.10
2022-07-25T16:44:50.941Z,67.10
2022-07-25T16:47:18.685Z,67.20
2022-07-25T16:49:46.488Z,67.20
2022-07-25T16:52:14.387Z,67.30
2022-07-25T16:54:42.088Z,67.50
2022-07-25T16:57:15.473Z,67.70
2022-07-25T16:59:43.515Z,67.90
2022-07-25T17:02:11.388Z,68.50
2022-07-25T17:04:39.171Z,69.40
2022-07-25T17:07:06.953Z,69.50
2022-07-25T17:09:34.670Z,69.70
2022-07-25T17:12:02.545Z,69.90
2022-07-25T17:14:31.338Z,69.80
2022-07-25T17:16:59.451Z,69.80
2022-07-25T17:19:27.135Z,69.80
2022-07-25T17:21:55.623Z,69.90
2022-07-25T17:24:23.265Z,69.90
2022-07-25T17:26:50.951Z,69.80
2022-07-25T17:29:18.625Z,69.90
2022-07-25T17:31:46.268Z,70.00
2022-07-25T17:34:14.121Z,70.20
2022-07-25T17:36:42.623Z,70.20
2022-07-25T17:39:10.640Z,70.30
2022-07-25T17:41:38.488Z,70.60
2022-07-25T17:44:10.055Z,70.70
2022-07-25T17:46:39.734Z,70.80
2022-07-25T17:49:07.612Z,71.00
2022-07-25T17:51:35.423Z,71.30
2022-07-25T17:54:04.039Z,71.70
2022-07-25T17:56:32.532Z,72.20
2022-07-25T17:59:00.344Z,72.60
2022-07-25T18:01:28.177Z,72.60
2022-07-25T18:03:56.295Z,73.00
2022-07-25T18:06:27.769Z,73.50
2022-07-25T18:08:58.130Z,73.90
2022-07-25T18:11:26.539Z,74.70
2022-07-25T18:13:54.161Z,75.40
2022-07-25T18:16:21.954Z,75.60
2022-07-25T18:18:49.704Z,75.60
2022-07-25T18:21:17.359Z,75.50
2022-07-25T18:23:45.110Z,74.60
2022-07-25T18:26:15.135Z,74.00
2022-07-25T18:28:45.556Z,71.80
2022-07-25T18:31:13.265Z,71.60
2022-07-25T18:33:44.139Z,70.90
2022-07-25T18:36:11.987Z,71.30
2022-07-25T18:38:39.965Z,71.50
2022-07-25T18:43:56.932Z,72.00
2022-07-25T18:46:25.010Z,72.10
2022-07-25T18:48:53.287Z,72.10
2022-07-25T18:51:21.695Z,72.40
2022-07-25T18:53:52.051Z,72.60
2022-07-25T18:56:19.785Z,72.70
2022-07-25T18:58:47.514Z,72.90
2022-07-25T19:01:15.211Z,73.20
2022-07-25T19:03:42.894Z,73.40
2022-07-25T19:06:10.833Z,73.50
2022-07-25T19:08:38.700Z,73.70
2022-07-25T19:11:08.052Z,73.80
2022-07-25T19:13:49.410Z,73.80
2022-07-25T19:16:17.942Z,74.10
2022-07-25T19:18:46.226Z,74.00
2022-07-25T19:21:14.303Z,74.20
2022-07-25T19:23:45.731Z,74.30
2022-07-25T19:26:18.034Z,74.30
2022-07-25T19:28:49.171Z,74.50
2022-07-25T19:31:17.429Z,74.60
2022-07-25T19:33:48.094Z,74.70
2022-07-25T19:36:15.766Z,74.80
2022-07-25T19:38:45.955Z,74.90
2022-07-25T19:41:14.559Z,74.90
2022-07-25T19:43:42.554Z,74.90
2022-07-25T19:46:10.195Z,74.80
2022-07-25T19:48:40.845Z,74.70
2022-07-25T19:51:08.707Z,74.80
2022-07-25T19:53:37.108Z,74.70
2022-07-25T19:56:06.745Z,74.50
2022-07-25T19:58:38.584Z,74.60
2022-07-25T20:01:07.003Z,74.70
2022-07-25T20:03:35.802Z,74.30
2022-07-25T20:06:08.054Z,74.30
2022-07-25T20:08:39.465Z,74.10
2022-07-25T20:11:08.046Z,74.10
2022-07-25T20:13:36.177Z,74.10
2022-07-25T20:16:04.284Z,74.10
2022-07-25T20:18:32.049Z,74.10
2022-07-25T20:21:01.071Z,74.20
2022-07-25T20:23:30.717Z,74.40
2022-07-25T20:25:58.387Z,74.60
2022-07-25T20:28:26.162Z,74.70
2022-07-25T20:30:55.982Z,74.90
2022-07-25T20:33:27.219Z,75.10
2022-07-25T20:35:55.849Z,75.30
2022-07-25T20:38:25.774Z,75.40
2022-07-25T20:40:56.151Z,75.60
2022-07-25T20:43:23.864Z,75.90
2022-07-25T20:45:51.585Z,75.90
2022-07-25T20:48:19.302Z,76.00
2022-07-25T20:50:47.169Z,76.10
2022-07-25T20:53:14.750Z,76.20
2022-07-25T20:55:44.980Z,76.50
2022-07-25T20:58:12.723Z,76.80
2022-07-25T21:00:41.380Z,77.00
2022-07-25T21:03:09.644Z,77.30
2022-07-25T21:05:43.081Z,77.50
2022-07-25T21:08:11.520Z,77.80
2022-07-25T21:10:39.765Z,78.30
2022-07-25T21:13:07.793Z,78.50
2022-07-25T21:15:41.309Z,78.60
2022-07-25T21:18:10.837Z,78.80
2022-07-25T21:20:38.613Z,78.90
2022-07-25T21:23:06.427Z,79.10
2022-07-25T21:25:36.318Z,79.40
2022-07-25T21:28:04.176Z,79.50
2022-07-25T21:30:32.266Z,79.60
2022-07-25T21:32:59.972Z,79.70
2022-07-25T21:35:27.901Z,79.60
2022-07-25T21:37:55.880Z,79.70
2022-07-25T21:40:23.790Z,79.80
2022-07-25T21:42:51.488Z,79.70
2022-07-25T21:45:19.260Z,79.70
2022-07-25T21:47:46.872Z,79.50
2022-07-25T21:50:32.919Z,79.20
2022-07-25T21:53:00.639Z,79.00
2022-07-25T21:55:28.293Z,78.90
2022-07-25T21:57:56.215Z,78.80
2022-07-25T22:00:24.255Z,78.80
2022-07-25T22:02:52.086Z,78.80
2022-07-25T22:05:20.128Z,78.80
2022-07-25T22:07:48.522Z,78.90
2022-07-25T22:10:17.650Z,79.00
2022-07-25T22:12:45.777Z,79.10
2022-07-25T22:15:15.515Z,79.60
2022-07-25T22:17:48.345Z,79.20
2022-07-25T22:20:20.348Z,79.40
2022-07-25T22:22:48.734Z,79.50
2022-07-25T22:25:17.071Z,79.50
2022-07-25T22:27:44.874Z,79.50
2022-07-25T22:30:18.252Z,79.70
2022-07-25T22:32:48.490Z,79.80
2022-07-25T22:35:17.091Z,79.70
2022-07-25T22:37:45.695Z,79.50
2022-07-25T22:40:14.261Z,79.30
2022-07-25T22:42:45.213Z,79.30
2022-07-25T22:45:12.874Z,79.00
2022-07-25T22:47:40.539Z,78.80
2022-07-25T22:50:09.626Z,78.80
2022-07-25T22:52:37.466Z,78.60
2022-07-25T22:55:05.501Z,78.50
2022-07-25T22:57:37.355Z,78.50
2022-07-25T23:00:11.524Z,78.40
2022-07-25T23:02:42.392Z,78.60
2022-07-25T23:05:13.344Z,78.10
2022-07-25T23:07:40.973Z,78.00
2022-07-25T23:10:09.557Z,78.00
2022-07-25T23:12:37.411Z,77.90
2022-07-25T23:15:05.673Z,77.80
2022-07-25T23:17:33.396Z,77.50
2022-07-25T23:20:01.634Z,77.50
2022-07-25T23:22:30.212Z,77.40
2022-07-25T23:24:58.755Z,77.20
2022-07-25T23:27:26.558Z,77.10
2022-07-25T23:29:54.449Z,77.10
2022-07-25T23:32:22.144Z,77.00
2022-07-25T23:34:49.830Z,77.00
2022-07-25T23:37:17.500Z,76.90
2022-07-25T23:39:45.083Z,76.80
2022-07-25T23:42:12.782Z,76.80
2022-07-25T23:44:42.204Z,76.90
2022-07-25T23:47:12.175Z,77.00
2022-07-25T23:49:39.953Z,77.00
2022-07-25T23:52:07.593Z,77.10
2022-07-25T23:54:35.240Z,77.20
2022-07-25T23:57:03.013Z,77.40
2022-07-25T23:59:31.046Z,77.30
